Time;durP1;ratioP1;P1;durP2;ratioP2;P2;SDS_P1;SDS_P2;PMS_P1;PMS_P2;Temp;Humidity;BMP_temperature;BMP_pressure;BME280_temperature;BME280_humidity;BME280_pressure;Samples;Min_cycle;Max_cycle;Signal;HPM_P1;HPM_P2
2022/06/06 00:01:47;;;;;;;7.38;4.57;;;17.50;75.10;;;;;;5073508;28;20029;-11
2022/06/06 00:04:13;;;;;;;8.77;4.25;;;17.50;75.00;;;;;;5075210;28;20039;-11
2022/06/06 00:06:40;;;;;;;6.72;4.47;;;17.40;75.20;;;;;;5074313;28;20031;-11
2022/06/06 00:09:08;;;;;;;6.32;4.25;;;17.30;75.20;;;;;;5074510;28;20103;-11
2022/06/06 00:11:35;;;;;;;12.00;6.18;;;17.20;75.30;;;;;;5074385;28;20033;-12
2022/06/06 00:14:02;;;;;;;11.52;6.05;;;17.10;75.60;;;;;;5074221;28;20049;-10
2022/06/06 00:16:28;;;;;;;6.65;4.53;;;17.10;76.20;;;;;;5074432;28;20024;-11
2022/06/06 00:18:54;;;;;;;9.55;5.45;;;17.10;76.10;;;;;;5074584;28;20028;-11
2022/06/06 00:21:21;;;;;;;11.77;6.70;;;17.10;76.30;;;;;;5074289;28;20021;-11
2022/06/06 00:23:48;;;;;;;13.82;6.40;;;17.10;77.70;;;;;;5074329;28;20024;-11
2022/06/06 00:26:16;;;;;;;14.52;6.60;;;17.10;77.20;;;;;;5074160;28;20499;-10
2022/06/06 00:28:44;;;;;;;10.30;6.35;;;17.10;77.50;;;;;;5074104;28;20511;-11
2022/06/06 00:36:42;;;;;;;10.15;5.30;;;17.10;77.00;;;;;;5073814;28;20031;-11
2022/06/06 00:39:12;;;;;;;12.00;7.70;;;17.10;76.80;;;;;;5072715;28;20024;-11
2022/06/06 00:41:40;;;;;;;12.48;7.60;;;17.10;77.00;;;;;;5074011;28;20071;-11
2022/06/06 00:44:16;;;;;;;9.68;5.90;;;17.10;77.50;;;;;;5074211;28;20024;-12
2022/06/06 00:46:54;;;;;;;10.05;6.30;;;17.00;77.30;;;;;;5073750;28;20028;-11
2022/06/06 00:49:49;;;;;;;15.02;8.35;;;17.00;77.20;;;;;;5073728;28;20021;-10
2022/06/06 00:52:34;;;;;;;14.27;8.13;;;17.00;77.30;;;;;;5073471;28;20044;-11
2022/06/06 00:55:13;;;;;;;10.48;5.65;;;17.00;77.80;;;;;;5074107;28;20021;-11
2022/06/06 00:57:44;;;;;;;8.50;5.10;;;16.90;77.50;;;;;;5073615;28;20485;-11
2022/06/06 01:00:15;;;;;;;8.63;5.45;;;16.90;77.50;;;;;;5073592;28;20386;-11
2022/06/06 01:02:44;;;;;;;12.10;7.38;;;16.90;77.40;;;;;;5073449;28;20028;-10
2022/06/06 01:05:11;;;;;;;12.88;6.60;;;16.90;77.70;;;;;;5073368;28;20489;-10
2022/06/06 01:07:37;;;;;;;7.97;5.00;;;16.90;77.60;;;;;;5073408;28;20020;-12
2022/06/06 01:10:04;;;;;;;9.50;5.35;;;16.90;77.50;;;;;;5072096;28;20029;-11
2022/06/06 01:12:32;;;;;;;8.02;4.97;;;16.80;77.80;;;;;;5072875;28;20040;-10
2022/06/06 01:15:04;;;;;;;9.23;6.32;;;16.80;77.50;;;;;;5073393;28;20433;-11
2022/06/06 01:17:30;;;;;;;8.10;4.90;;;16.70;77.60;;;;;;5073375;28;20388;-11
2022/06/06 01:20:22;;;;;;;8.60;5.43;;;16.70;77.70;;;;;;5073809;28;20127;-10
2022/06/06 01:23:12;;;;;;;9.55;5.03;;;16.70;77.80;;;;;;5073667;28;20400;-11
2022/06/06 01:25:58;;;;;;;13.75;6.80;;;16.60;77.70;;;;;;5073220;28;20024;-11
2022/06/06 01:28:35;;;;;;;10.32;5.25;;;16.60;78.30;;;;;;5073290;28;20063;-11
2022/06/06 01:31:07;;;;;;;8.43;5.15;;;16.60;78.30;;;;;;5073126;28;20071;-10
2022/06/06 01:33:57;;;;;;;12.82;6.50;;;16.50;78.10;;;;;;5073846;28;20044;-10
2022/06/06 01:36:27;;;;;;;12.63;7.03;;;16.50;78.00;;;;;;5073780;28;20085;-10
2022/06/06 01:38:54;;;;;;;12.27;6.13;;;16.50;78.20;;;;;;5073351;28;20141;-10
2022/06/06 01:41:46;;;;;;;14.77;8.18;;;16.50;78.50;;;;;;5073315;28;20020;-10
2022/06/06 01:44:22;;;;;;;12.93;6.47;;;16.50;78.50;;;;;;5072839;28;20057;-11
2022/06/06 01:46:50;;;;;;;15.70;9.18;;;16.50;78.60;;;;;;5073324;28;20052;-11
2022/06/06 01:49:17;;;;;;;10.98;6.40;;;16.50;78.70;;;;;;5073823;28;20081;-11
2022/06/06 01:51:43;;;;;;;10.45;5.25;;;16.50;78.90;;;;;;5072772;28;20419;-10
2022/06/06 01:54:17;;;;;;;10.65;5.80;;;16.50;78.70;;;;;;5072905;28;20032;-11
2022/06/06 01:56:43;;;;;;;12.38;7.00;;;16.40;78.50;;;;;;5073271;28;20480;-11
2022/06/06 01:59:08;;;;;;;13.23;8.13;;;16.40;78.70;;;;;;5073282;28;20068;-11
2022/06/06 02:01:34;;;;;;;9.65;6.00;;;16.40;79.00;;;;;;5073145;28;20499;-11
2022/06/06 02:04:00;;;;;;;9.02;5.90;;;16.40;78.90;;;;;;5072829;28;20154;-10
2022/06/06 02:06:26;;;;;;;11.63;6.03;;;16.30;79.00;;;;;;5072626;28;20115;-11
2022/06/06 02:08:52;;;;;;;10.77;6.85;;;16.30;79.00;;;;;;5073362;28;20032;-10
2022/06/06 02:11:19;;;;;;;12.52;7.82;;;16.20;79.30;;;;;;5072676;28;20028;-11
2022/06/06 02:13:46;;;;;;;9.60;6.28;;;16.20;79.40;;;;;;5072519;28;20542;-10
2022/06/06 02:16:12;;;;;;;11.45;6.30;;;16.20;79.50;;;;;;5072738;28;20082;-11
2022/06/06 02:18:38;;;;;;;12.40;8.52;;;16.10;79.50;;;;;;5072479;28;20058;-11
2022/06/06 02:21:04;;;;;;;9.65;6.13;;;16.10;79.70;;;;;;5072525;28;20043;-12
2022/06/06 02:23:31;;;;;;;13.98;8.20;;;16.10;79.70;;;;;;5072790;28;20107;-11
2022/06/06 02:25:57;;;;;;;9.75;6.60;;;16.10;79.90;;;;;;5076785;28;20017;-11
2022/06/06 02:28:24;;;;;;;11.13;6.03;;;16.10;79.90;;;;;;5076489;28;20024;-11
2022/06/06 02:30:51;;;;;;;11.38;6.65;;;16.00;79.70;;;;;;5076239;28;20086;-11
2022/06/06 02:33:17;;;;;;;14.50;8.43;;;16.00;79.90;;;;;;5076344;28;20115;-11
2022/06/06 02:35:43;;;;;;;14.57;7.88;;;15.90;79.80;;;;;;5076484;28;20396;-10
2022/06/06 02:38:12;;;;;;;11.00;6.72;;;15.90;80.10;;;;;;5076180;28;20024;-11
2022/06/06 02:40:40;;;;;;;18.65;9.98;;;15.90;80.30;;;;;;5076260;28;20032;-10
2022/06/06 02:43:06;;;;;;;9.50;6.63;;;15.90;80.50;;;;;;5076118;28;20048;-11
2022/06/06 02:45:32;;;;;;;11.98;5.97;;;15.90;80.70;;;;;;5076081;28;20064;-11
2022/06/06 02:47:59;;;;;;;12.65;6.97;;;15.90;80.30;;;;;;5076935;28;20074;-11
2022/06/06 02:50:29;;;;;;;13.48;8.48;;;15.90;80.40;;;;;;5075713;28;20085;-11
2022/06/06 02:52:56;;;;;;;19.67;10.65;;;15.90;80.50;;;;;;5076506;28;20384;-10
2022/06/06 02:55:22;;;;;;;11.88;6.78;;;15.90;80.60;;;;;;5075952;28;20036;-10
2022/06/06 02:57:51;;;;;;;9.95;6.65;;;15.90;81.00;;;;;;5075889;28;20028;-10
2022/06/06 03:00:22;;;;;;;11.60;6.88;;;15.80;80.60;;;;;;5075687;28;20512;-10
2022/06/06 03:02:48;;;;;;;12.57;6.95;;;15.80;80.50;;;;;;5075661;28;20123;-11
2022/06/06 03:05:16;;;;;;;13.15;7.80;;;15.80;80.70;;;;;;5076087;28;20154;-11
2022/06/06 03:07:42;;;;;;;12.93;8.27;;;15.80;81.00;;;;;;5075591;28;20025;-11
2022/06/06 03:10:27;;;;;;;18.92;10.57;;;15.70;81.30;;;;;;5076300;28;20028;-10
2022/06/06 03:13:23;;;;;;;12.50;7.70;;;15.70;81.10;;;;;;5074247;28;20064;-10
2022/06/06 03:22:13;;;;;;;8.77;5.30;;;15.70;81.00;;;;;;5075710;28;20027;-11
2022/06/06 03:25:05;;;;;;;8.45;4.95;;;15.60;80.90;;;;;;5076549;28;20113;-11
2022/06/06 03:27:46;;;;;;;9.10;5.68;;;15.60;80.70;;;;;;5075185;28;20036;-11
2022/06/06 03:30:37;;;;;;;12.15;7.20;;;15.50;80.60;;;;;;5075309;28;20025;-11
2022/06/06 03:33:25;;;;;;;9.38;6.10;;;15.50;80.80;;;;;;5075234;28;20044;-11
2022/06/06 03:36:26;;;;;;;7.97;5.20;;;15.50;80.80;;;;;;5074881;28;20067;-11
2022/06/06 03:39:28;;;;;;;10.98;7.07;;;15.50;80.80;;;;;;5074985;28;20020;-12
2022/06/06 03:42:31;;;;;;;8.40;5.00;;;15.40;81.20;;;;;;5075156;28;20067;-11
2022/06/06 03:45:15;;;;;;;8.45;4.40;;;15.40;81.10;;;;;;5075117;28;20024;-10
2022/06/06 03:48:18;;;;;;;10.20;5.28;;;15.50;80.80;;;;;;5075126;28;20025;-11
2022/06/06 03:51:13;;;;;;;9.15;5.93;;;15.50;80.80;;;;;;5074815;28;20033;-11
2022/06/06 03:53:46;;;;;;;7.88;5.60;;;15.50;80.80;;;;;;5074872;28;20040;-11
2022/06/06 03:56:28;;;;;;;8.48;5.32;;;15.50;80.60;;;;;;5074788;28;20059;-11
2022/06/06 03:58:56;;;;;;;9.80;5.55;;;15.50;80.90;;;;;;5074834;28;20032;-11
2022/06/06 04:01:23;;;;;;;10.50;6.95;;;15.50;81.20;;;;;;5074774;28;20038;-11
2022/06/06 04:03:52;;;;;;;10.75;6.38;;;15.60;81.40;;;;;;5074861;28;20024;-9
2022/06/06 04:06:19;;;;;;;8.73;4.95;;;15.60;81.00;;;;;;5074404;28;20020;-11
2022/06/06 04:08:46;;;;;;;10.73;6.13;;;15.60;81.20;;;;;;5074556;28;20550;-12
2022/06/06 04:11:29;;;;;;;12.40;6.20;;;15.60;82.70;;;;;;5075056;28;20029;-11
2022/06/06 04:14:16;;;;;;;9.60;5.20;;;15.70;82.20;;;;;;5073065;28;20540;-11
2022/06/06 04:17:03;;;;;;;9.27;4.72;;;15.70;81.60;;;;;;5074659;28;20361;-11
2022/06/06 04:19:39;;;;;;;7.18;4.40;;;15.70;81.50;;;;;;5073916;28;20112;-11
2022/06/06 04:22:32;;;;;;;12.38;6.20;;;15.90;81.00;;;;;;5072966;28;20575;-10
2022/06/06 04:25:11;;;;;;;7.43;4.90;;;15.90;81.00;;;;;;5074584;28;20029;-11
2022/06/06 04:28:02;;;;;;;8.65;5.05;;;16.00;81.00;;;;;;5074490;28;20021;-12
2022/06/06 04:30:53;;;;;;;7.10;4.35;;;16.10;80.60;;;;;;5073951;28;20461;-11
2022/06/06 04:33:42;;;;;;;5.63;4.03;;;16.30;80.40;;;;;;5073803;28;20036;-11
2022/06/06 04:36:37;;;;;;;8.75;4.78;;;16.40;80.10;;;;;;5073914;28;20377;-10
2022/06/06 04:39:34;;;;;;;9.73;4.93;;;16.50;80.10;;;;;;5068227;28;20210;-11
2022/06/06 04:42:11;;;;;;;11.93;5.88;;;16.60;79.60;;;;;;5074227;28;20041;-11
2022/06/06 04:44:59;;;;;;;8.60;4.82;;;16.70;79.60;;;;;;5074030;28;20050;-11
2022/06/06 04:47:28;;;;;;;12.50;6.72;;;16.90;79.60;;;;;;5073281;28;20058;-11
2022/06/06 04:49:57;;;;;;;13.63;7.13;;;17.00;78.90;;;;;;5073767;28;20024;-11
2022/06/06 04:52:25;;;;;;;9.18;5.55;;;17.10;78.80;;;;;;5073298;28;20064;-10
2022/06/06 04:54:53;;;;;;;7.25;5.10;;;17.30;78.60;;;;;;5073640;28;20024;-11
2022/06/06 04:57:20;;;;;;;10.70;5.90;;;17.40;78.30;;;;;;5073898;28;20035;-11
2022/06/06 04:59:47;;;;;;;10.18;4.68;;;17.50;78.50;;;;;;5074154;28;20059;-10
2022/06/06 05:02:15;;;;;;;9.75;5.35;;;17.70;77.70;;;;;;5073511;28;20021;-11
2022/06/06 05:04:41;;;;;;;10.40;5.05;;;17.90;77.70;;;;;;5073495;28;20388;-11
2022/06/06 05:07:35;;;;;;;12.15;6.57;;;17.90;77.60;;;;;;5073687;28;20033;-11
2022/06/06 05:10:12;;;;;;;8.43;4.70;;;18.10;77.10;;;;;;5073799;28;20025;-11
2022/06/06 05:12:59;;;;;;;10.15;4.90;;;18.30;76.80;;;;;;5073021;28;20475;-11
2022/06/06 05:16:10;;;;;;;9.95;5.30;;;18.40;76.60;;;;;;5073405;28;20029;-11
2022/06/06 05:18:47;;;;;;;9.10;5.25;;;18.50;76.40;;;;;;5031353;28;20022;-10
2022/06/06 05:21:31;;;;;;;8.40;4.60;;;18.70;76.60;;;;;;5031760;28;20133;-11
2022/06/06 05:24:00;;;;;;;8.75;4.75;;;18.80;76.40;;;;;;5031337;28;20067;-11
2022/06/06 05:26:54;;;;;;;10.68;5.40;;;18.90;76.00;;;;;;5031707;28;20056;-10
2022/06/06 05:29:48;;;;;;;13.00;6.10;;;19.10;76.20;;;;;;5031245;28;20386;-10
2022/06/06 05:32:32;;;;;;;9.23;5.63;;;19.30;76.30;;;;;;5031698;28;20123;-10
2022/06/06 05:35:27;;;;;;;7.88;4.90;;;19.50;75.90;;;;;;5031182;28;20029;-11
2022/06/06 05:37:52;;;;;;;7.13;4.20;;;19.70;75.40;;;;;;5031252;28;20026;-11
2022/06/06 05:40:48;;;;;;;10.75;5.60;;;19.80;74.90;;;;;;5031009;28;20099;-10
2022/06/06 05:43:34;;;;;;;10.60;6.15;;;19.90;74.50;;;;;;5031466;28;20510;-11
2022/06/06 05:46:11;;;;;;;10.10;6.25;;;20.10;74.70;;;;;;5031140;28;20113;-10
2022/06/06 05:49:04;;;;;;;10.38;6.63;;;20.20;73.90;;;;;;5030818;28;20512;-11
2022/06/06 05:51:49;;;;;;;9.45;5.18;;;20.40;73.90;;;;;;5033261;28;20033;-10
2022/06/06 05:54:23;;;;;;;14.90;6.85;;;20.40;74.30;;;;;;5073097;28;20028;-12
2022/06/06 05:57:15;;;;;;;9.80;6.80;;;20.50;74.10;;;;;;5073437;28;20106;-10
2022/06/06 06:00:00;;;;;;;11.52;7.00;;;20.70;73.40;;;;;;5058832;28;20070;-11
2022/06/06 06:02:50;;;;;;;9.50;5.47;;;20.80;72.90;;;;;;5076773;28;20033;-11
2022/06/06 06:05:36;;;;;;;10.98;5.70;;;20.90;72.50;;;;;;5078064;28;20037;-11
2022/06/06 06:08:23;;;;;;;10.88;6.47;;;21.00;72.20;;;;;;5077240;28;20029;-11
2022/06/06 06:11:17;;;;;;;12.70;7.93;;;21.10;71.70;;;;;;5076847;28;20039;-11
2022/06/06 06:14:18;;;;;;;8.63;6.35;;;21.20;71.70;;;;;;5076833;28;20535;-11
2022/06/06 06:16:49;;;;;;;10.57;5.43;;;21.40;71.90;;;;;;5035066;28;20087;-11
2022/06/06 06:19:20;;;;;;;10.00;6.00;;;21.50;71.20;;;;;;5034963;28;20040;-10
2022/06/06 06:21:55;;;;;;;11.68;5.97;;;21.70;71.90;;;;;;5017967;28;20536;-11
2022/06/06 06:24:31;;;;;;;7.22;5.05;;;21.90;71.00;;;;;;5034383;28;20032;-11
2022/06/06 06:26:58;;;;;;;10.10;5.60;;;22.10;70.50;;;;;;5034640;28;20034;-11
2022/06/06 06:29:25;;;;;;;8.25;4.18;;;22.30;70.00;;;;;;5034561;28;20029;-11
2022/06/06 06:32:17;;;;;;;13.00;6.10;;;22.40;69.70;;;;;;5034330;28;20025;-11
2022/06/06 06:35:24;;;;;;;11.68;5.55;;;22.50;69.60;;;;;;5030763;28;20113;-11
2022/06/06 06:37:55;;;;;;;13.25;5.47;;;22.70;68.90;;;;;;5023833;28;20371;-11
2022/06/06 06:40:43;;;;;;;6.35;4.20;;;22.90;68.50;;;;;;5034232;28;20025;-10
2022/06/06 06:43:29;;;;;;;7.90;3.97;;;22.90;68.40;;;;;;5034867;28;20034;-11
2022/06/06 06:46:03;;;;;;;8.25;4.00;;;23.10;67.30;;;;;;5034278;28;20030;-9
2022/06/06 06:48:44;;;;;;;7.35;3.53;;;23.30;66.90;;;;;;5033946;28;20475;-11
2022/06/06 06:51:31;;;;;;;5.15;3.50;;;23.50;66.10;;;;;;5036341;28;20109;-11
2022/06/06 06:54:33;;;;;;;4.75;3.20;;;23.60;65.60;;;;;;5076365;28;20055;-11
2022/06/06 06:57:14;;;;;;;4.15;2.58;;;23.90;64.40;;;;;;5075982;28;20107;-10
2022/06/06 07:00:16;;;;;;;5.25;2.40;;;24.00;62.60;;;;;;5075907;28;20137;-10
2022/06/06 07:09:19;;;;;;;7.43;4.10;;;24.60;61.60;;;;;;5075871;28;20127;-11
2022/06/06 07:12:11;;;;;;;8.35;3.90;;;24.80;61.60;;;;;;5075503;28;20028;-10
2022/06/06 07:15:13;;;;;;;8.25;3.75;;;24.70;61.80;;;;;;5033387;28;20041;-11
2022/06/06 07:17:50;;;;;;;8.55;3.30;;;24.80;62.40;;;;;;4955987;29;20024;-9
2022/06/06 07:20:18;;;;;;;5.63;3.20;;;24.90;62.80;;;;;;5023498;28;20042;-10
2022/06/06 07:22:59;;;;;;;8.23;4.07;;;25.10;62.90;;;;;;5033432;28;20029;-11
2022/06/06 07:25:27;;;;;;;6.18;3.55;;;25.30;62.70;;;;;;5033582;28;20048;-9
2022/06/06 07:27:53;;;;;;;6.05;3.35;;;25.60;62.10;;;;;;5033413;28;20104;-10
2022/06/06 07:30:21;;;;;;;9.70;3.78;;;25.80;61.40;;;;;;5033490;28;20029;-10
2022/06/06 07:33:00;;;;;;;7.00;3.00;;;26.00;60.80;;;;;;5016673;28;20050;-10
2022/06/06 07:35:39;;;;;;;3.80;2.63;;;26.20;58.80;;;;;;5033297;28;20105;-10
2022/06/06 07:38:16;;;;;;;5.03;2.50;;;26.50;57.10;;;;;;5033153;28;20493;-10
2022/06/06 07:41:00;;;;;;;4.45;2.65;;;26.80;56.80;;;;;;5033222;28;20033;-9
2022/06/06 07:43:44;;;;;;;5.13;2.90;;;27.00;54.90;;;;;;5033750;28;20029;-10
2022/06/06 07:46:38;;;;;;;4.57;2.28;;;27.30;54.70;;;;;;5033257;28;20060;-12
2022/06/06 07:49:18;;;;;;;7.82;2.83;;;27.50;53.60;;;;;;5032993;28;20501;-11
2022/06/06 07:52:15;;;;;;;3.88;2.10;;;27.70;53.30;;;;;;5059367;28;20037;-11
2022/06/06 07:54:49;;;;;;;6.60;2.25;;;27.90;53.00;;;;;;5072433;28;20455;-11
2022/06/06 07:57:29;;;;;;;4.63;2.17;;;28.20;52.60;;;;;;5075121;28;20074;-10
2022/06/06 08:00:07;;;;;;;5.13;2.60;;;28.50;51.70;;;;;;5074789;28;20060;-11
2022/06/06 08:02:57;;;;;;;3.47;2.30;;;28.60;50.60;;;;;;5074604;28;20028;-10
2022/06/06 08:05:26;;;;;;;5.97;2.67;;;28.70;48.80;;;;;;5074664;28;20032;-11
2022/06/06 08:08:18;;;;;;;3.38;2.33;;;28.80;50.20;;;;;;5074527;28;20024;-11
2022/06/06 08:10:46;;;;;;;8.18;3.08;;;28.90;49.60;;;;;;5056538;28;20514;-12
2022/06/06 08:13:30;;;;;;;6.25;2.60;;;29.00;49.60;;;;;;5073023;28;20044;-10
2022/06/06 08:16:08;;;;;;;7.60;2.40;;;28.90;49.80;;;;;;5074677;28;20033;-11
2022/06/06 08:18:49;;;;;;;3.53;2.17;;;29.00;50.40;;;;;;5074398;28;20032;-11
2022/06/06 08:21:33;;;;;;;6.55;2.70;;;29.30;49.80;;;;;;5073592;28;20162;-10
2022/06/06 08:24:03;;;;;;;6.13;3.00;;;29.50;49.70;;;;;;5074639;28;20025;-11
2022/06/06 08:26:34;;;;;;;5.93;3.10;;;29.70;49.20;;;;;;5074332;28;20062;-10
2022/06/06 08:29:01;;;;;;;6.05;2.80;;;29.80;48.80;;;;;;5074235;28;20030;-11
2022/06/06 08:31:27;;;;;;;6.60;2.97;;;29.70;48.70;;;;;;5074025;28;20542;-10
2022/06/06 08:33:53;;;;;;;7.07;2.83;;;29.90;47.70;;;;;;5074073;28;20123;-11
2022/06/06 08:36:41;;;;;;;5.63;2.60;;;30.20;46.10;;;;;;5073937;28;20032;-11
2022/06/06 08:39:17;;;;;;;3.95;2.20;;;30.50;45.10;;;;;;5074307;28;20040;-11
2022/06/06 08:42:02;;;;;;;3.25;2.17;;;30.80;44.20;;;;;;5074307;28;20074;-11
2022/06/06 08:44:55;;;;;;;4.13;1.90;;;31.10;44.90;;;;;;5072479;28;20028;-11
2022/06/06 08:47:38;;;;;;;3.75;1.80;;;31.50;42.60;;;;;;5073887;28;20020;-11
2022/06/06 08:53:46;;;;;;;4.45;1.92;;;31.90;42.40;;;;;;5073677;28;20125;-11
2022/06/06 08:56:37;;;;;;;2.27;1.47;;;32.20;40.70;;;;;;5074024;28;20495;-11
2022/06/06 08:59:12;;;;;;;4.30;1.70;;;32.50;39.70;;;;;;5073672;28;20308;-11
2022/06/06 09:01:47;;;;;;;3.40;1.60;;;32.70;40.80;;;;;;5073945;28;20491;-11
2022/06/06 09:04:51;;;;;;;3.80;1.60;;;32.90;40.30;;;;;;5073542;28;20071;-11
2022/06/06 09:07:51;;;;;;;3.30;1.88;;;33.20;39.90;;;;;;5073660;28;20032;-11
2022/06/06 09:10:48;;;;;;;3.92;1.60;;;33.60;38.20;;;;;;5073593;28;20029;-11
2022/06/06 09:13:32;;;;;;;3.25;1.50;;;33.90;35.80;;;;;;5073074;28;20044;-11
2022/06/06 09:16:55;;;;;;;4.63;1.63;;;34.10;38.10;;;;;;5073385;28;20427;-10
2022/06/06 09:19:49;;;;;;;2.97;1.08;;;34.20;37.70;;;;;;5050368;28;20082;-11
2022/06/06 09:22:51;;;;;;;3.83;1.55;;;34.40;37.30;;;;;;5073355;28;20033;-11
2022/06/06 09:25:37;;;;;;;5.30;1.63;;;34.50;35.40;;;;;;5052042;28;20029;-11
2022/06/06 09:28:35;;;;;;;1.55;1.10;;;34.30;36.80;;;;;;5073542;28;20032;-11
2022/06/06 09:31:29;;;;;;;1.27;1.13;;;34.30;38.20;;;;;;5067590;28;20021;-11
2022/06/06 09:34:26;;;;;;;2.47;1.30;;;34.70;34.00;;;;;;5072958;28;20044;-11
2022/06/06 09:37:07;;;;;;;2.47;1.13;;;34.90;33.60;;;;;;5073333;28;20060;-10
2022/06/06 09:39:44;;;;;;;2.15;1.30;;;35.10;34.60;;;;;;5073130;28;20025;-11
2022/06/06 09:42:32;;;;;;;2.25;1.17;;;35.20;33.10;;;;;;5073133;28;20036;-10
2022/06/06 09:45:00;;;;;;;2.75;1.30;;;35.40;32.90;;;;;;5073672;28;20033;-10
2022/06/06 09:47:48;;;;;;;2.95;1.13;;;35.50;33.40;;;;;;5073548;28;20036;-11
2022/06/06 09:50:42;;;;;;;2.58;1.30;;;35.50;33.50;;;;;;5073088;28;20154;-12
2022/06/06 09:53:37;;;;;;;2.30;1.10;;;35.70;33.20;;;;;;5072803;28;20047;-10
2022/06/06 09:59:50;;;;;;;4.03;1.20;;;36.10;31.80;;;;;;5073285;28;20035;-11
2022/06/06 10:02:43;;;;;;;1.00;0.90;;;36.40;30.80;;;;;;5073317;28;20032;-11
2022/06/06 10:05:30;;;;;;;2.90;1.20;;;36.50;32.00;;;;;;5073165;28;20484;-11
2022/06/06 10:08:07;;;;;;;2.53;1.40;;;36.70;30.40;;;;;;5073107;28;20028;-10
2022/06/06 10:11:01;;;;;;;3.15;1.20;;;36.90;30.50;;;;;;5072968;28;20025;-11
2022/06/06 10:13:37;;;;;;;4.05;1.15;;;37.10;29.60;;;;;;5072452;28;20534;-11
2022/06/06 10:16:45;;;;;;;1.98;1.40;;;37.20;29.60;;;;;;5073135;28;20029;-10
2022/06/06 10:19:27;;;;;;;4.18;1.23;;;37.20;29.50;;;;;;5072687;28;20500;-12
2022/06/06 10:22:02;;;;;;;4.15;1.60;;;37.20;30.60;;;;;;5072662;28;20078;-11
2022/06/06 10:24:40;;;;;;;3.08;1.40;;;37.20;30.30;;;;;;5072840;28;20036;-11
2022/06/06 10:27:18;;;;;;;5.55;1.38;;;37.30;30.50;;;;;;5072725;28;20028;-11
2022/06/06 10:30:18;;;;;;;2.88;1.38;;;37.50;31.10;;;;;;5072608;28;20478;-11
2022/06/06 10:33:09;;;;;;;2.65;1.50;;;37.70;31.00;;;;;;5055635;28;20094;-11
2022/06/06 10:36:05;;;;;;;2.92;1.63;;;38.00;31.10;;;;;;5073274;28;20028;-12
2022/06/06 10:39:19;;;;;;;2.05;1.10;;;37.90;30.50;;;;;;5072317;28;20032;-11
2022/06/06 10:42:10;;;;;;;2.05;1.20;;;37.80;29.50;;;;;;5063282;28;20029;-11
2022/06/06 10:45:00;;;;;;;1.45;1.05;;;37.90;29.20;;;;;;5072808;28;20131;-11
2022/06/06 10:47:40;;;;;;;2.83;1.50;;;38.20;29.10;;;;;;5076244;28;20035;-12
2022/06/06 10:50:21;;;;;;;2.28;1.38;;;38.50;29.00;;;;;;5076132;28;20029;-10
2022/06/06 10:53:08;;;;;;;5.68;1.60;;;38.70;29.80;;;;;;5076659;28;20115;-11
2022/06/06 10:55:59;;;;;;;2.30;1.42;;;39.00;29.00;;;;;;5076382;28;20031;-10
2022/06/06 10:58:44;;;;;;;2.47;1.20;;;39.20;27.70;;;;;;5075813;28;20170;-11
2022/06/06 11:01:25;;;;;;;2.80;1.35;;;39.50;28.10;;;;;;5075958;28;20040;-11
2022/06/06 11:04:03;;;;;;;3.00;1.30;;;39.90;27.60;;;;;;5076209;28;20073;-11
2022/06/06 11:06:37;;;;;;;2.63;1.48;;;40.10;27.90;;;;;;5075556;28;20033;-11
2022/06/06 11:09:25;;;;;;;2.10;1.20;;;40.40;27.20;;;;;;5076202;28;20028;-10
2022/06/06 11:12:09;;;;;;;3.53;1.70;;;40.70;27.10;;;;;;5075661;28;20036;-11
2022/06/06 11:14:38;;;;;;;1.40;1.30;;;40.90;26.40;;;;;;5075750;28;20090;-11
2022/06/06 11:17:04;;;;;;;2.65;1.50;;;40.60;27.90;;;;;;5076086;28;20506;-11
2022/06/06 11:19:55;;;;;;;4.38;1.50;;;40.40;27.80;;;;;;5075515;28;20020;-12
2022/06/06 11:22:32;;;;;;;4.60;1.63;;;40.40;28.10;;;;;;5075620;28;20028;-11
2022/06/06 11:25:13;;;;;;;2.30;1.30;;;40.80;26.70;;;;;;5076255;28;20024;-10
2022/06/06 11:28:07;;;;;;;3.67;1.50;;;40.90;27.50;;;;;;5075781;28;20035;-10
2022/06/06 11:31:13;;;;;;;3.20;1.55;;;41.10;26.20;;;;;;5075244;28;20016;-11
2022/06/06 11:33:51;;;;;;;2.88;1.50;;;40.90;26.50;;;;;;5075636;28;20043;-10
2022/06/06 11:36:22;;;;;;;3.45;1.48;;;40.80;27.10;;;;;;5075004;28;20488;-10
2022/06/06 11:39:07;;;;;;;4.10;2.00;;;40.80;26.80;;;;;;5075206;28;20028;-11
2022/06/06 11:42:10;;;;;;;2.30;1.50;;;40.90;26.60;;;;;;5075505;28;20086;-12
2022/06/06 11:45:00;;;;;;;2.75;1.50;;;41.10;26.00;;;;;;5075246;28;20021;-11
2022/06/06 11:47:45;;;;;;;4.40;1.88;;;40.90;26.50;;;;;;5075017;28;20028;-11
2022/06/06 11:50:34;;;;;;;3.17;1.75;;;40.90;25.80;;;;;;5075072;28;20024;-11
2022/06/06 11:53:20;;;;;;;4.10;1.55;;;41.00;25.80;;;;;;5075633;28;20388;-11
2022/06/06 11:55:55;;;;;;;3.85;1.88;;;41.20;25.40;;;;;;5074869;28;20596;-11
2022/06/06 11:58:33;;;;;;;3.55;2.10;;;41.20;25.80;;;;;;5074631;28;20025;-10
2022/06/06 12:01:11;;;;;;;3.65;1.90;;;41.20;25.20;;;;;;5074804;28;20043;-10
2022/06/06 12:03:46;;;;;;;4.05;1.98;;;40.70;26.00;;;;;;5074744;28;20040;-11
2022/06/06 12:06:22;;;;;;;3.53;1.70;;;40.20;26.50;;;;;;5074640;28;20028;-11
2022/06/06 12:08:54;;;;;;;2.95;1.67;;;39.70;27.40;;;;;;5075616;28;20021;-11
2022/06/06 12:11:46;;;;;;;3.45;1.60;;;39.40;27.70;;;;;;5074864;28;20437;-11
2022/06/06 12:14:43;;;;;;;2.92;1.85;;;39.10;28.00;;;;;;5074358;28;20381;-11
2022/06/06 12:17:31;;;;;;;3.90;1.95;;;39.10;28.00;;;;;;5074407;28;20112;-11
2022/06/06 12:20:41;;;;;;;4.82;1.75;;;38.90;28.80;;;;;;5074991;28;20029;-10
2022/06/06 12:23:30;;;;;;;3.58;1.58;;;38.90;29.30;;;;;;5050223;28;20102;-11
2022/06/06 12:25:58;;;;;;;4.68;1.70;;;39.00;29.10;;;;;;5074502;28;20016;-11
2022/06/06 12:28:42;;;;;;;3.53;1.55;;;39.10;29.00;;;;;;5074341;28;20024;-11
2022/06/06 12:31:45;;;;;;;2.13;1.35;;;39.50;28.40;;;;;;5074751;28;20040;-11
2022/06/06 12:34:20;;;;;;;3.42;1.80;;;39.90;27.40;;;;;;5074039;28;20047;-11
2022/06/06 12:36:56;;;;;;;6.05;1.90;;;40.30;26.40;;;;;;5073971;28;20024;-11
2022/06/06 12:40:01;;;;;;;2.95;1.85;;;40.20;26.80;;;;;;5074358;28;20024;-11
2022/06/06 12:42:48;;;;;;;4.35;1.92;;;40.20;27.10;;;;;;5050693;28;20036;-11
2022/06/06 12:45:35;;;;;;;2.53;1.80;;;40.50;26.20;;;;;;5074292;28;20024;-11
2022/06/06 12:48:04;;;;;;;4.95;1.50;;;40.50;26.80;;;;;;5072667;28;20052;-11
2022/06/06 12:50:39;;;;;;;4.88;2.00;;;40.40;26.70;;;;;;5073588;28;20032;-11
2022/06/06 12:53:40;;;;;;;3.50;1.95;;;40.50;27.00;;;;;;5073890;28;20048;-12
2022/06/06 12:56:39;;;;;;;2.92;1.83;;;40.40;27.30;;;;;;5073733;28;20021;-11
2022/06/06 12:59:26;;;;;;;4.57;1.70;;;40.50;26.60;;;;;;5074295;28;20016;-11
2022/06/06 13:02:08;;;;;;;9.35;2.40;;;40.30;26.80;;;;;;5073578;28;20393;-11
2022/06/06 13:04:58;;;;;;;4.95;2.00;;;39.60;28.00;;;;;;5073398;28;20033;-11
2022/06/06 13:07:57;;;;;;;5.18;1.63;;;39.80;28.20;;;;;;5073685;28;20101;-12
2022/06/06 13:10:53;;;;;;;2.03;1.30;;;39.90;27.60;;;;;;5057303;28;20064;-11
2022/06/06 13:13:34;;;;;;;3.28;1.45;;;40.10;27.10;;;;;;5073127;28;20044;-12
2022/06/06 13:16:24;;;;;;;2.30;1.58;;;40.20;27.00;;;;;;5073649;28;20032;-11
2022/06/06 13:19:01;;;;;;;5.57;1.90;;;40.30;26.80;;;;;;5073696;28;20029;-12
2022/06/06 13:21:54;;;;;;;4.60;1.70;;;40.40;26.90;;;;;;5073250;28;20029;-12
2022/06/06 13:24:38;;;;;;;3.78;1.50;;;40.30;26.10;;;;;;5073297;28;20082;-11
2022/06/06 13:27:19;;;;;;;4.20;1.63;;;39.80;27.30;;;;;;5073564;28;20040;-11
2022/06/06 13:29:46;;;;;;;4.00;1.80;;;39.90;26.20;;;;;;5073214;28;20469;-11
2022/06/06 13:32:23;;;;;;;4.32;1.42;;;39.90;26.00;;;;;;5073089;28;20024;-11
2022/06/06 13:35:04;;;;;;;4.85;1.58;;;39.80;26.20;;;;;;5073542;28;20095;-12
2022/06/06 13:38:11;;;;;;;2.85;1.45;;;39.80;26.10;;;;;;5073028;28;20020;-11
2022/06/06 13:40:42;;;;;;;2.80;1.50;;;39.50;26.20;;;;;;5073076;28;20218;-12
2022/06/06 13:43:35;;;;;;;3.17;1.73;;;39.60;26.90;;;;;;5073445;28;20036;-13
2022/06/06 13:46:26;;;;;;;1.45;1.25;;;39.40;27.30;;;;;;5073040;28;20106;-12
2022/06/06 13:49:10;;;;;;;3.22;1.23;;;39.60;26.60;;;;;;5073081;28;20035;-11
2022/06/06 13:52:24;;;;;;;2.65;1.30;;;39.80;27.00;;;;;;5072896;28;20105;-12
2022/06/06 13:54:50;;;;;;;3.33;1.42;;;39.90;26.30;;;;;;5031664;28;20033;-12
2022/06/06 13:57:23;;;;;;;2.90;1.50;;;39.90;26.10;;;;;;5031002;28;20148;-12
2022/06/06 14:00:19;;;;;;;4.72;1.45;;;39.90;26.00;;;;;;5030882;28;20116;-11
2022/06/06 14:03:35;;;;;;;5.22;1.45;;;39.60;26.00;;;;;;5030994;28;20037;-12
2022/06/06 14:06:34;;;;;;;1.73;1.23;;;39.30;26.70;;;;;;5030874;28;20109;-12
2022/06/06 14:09:01;;;;;;;2.22;1.58;;;38.70;27.60;;;;;;5030853;28;20026;-12
2022/06/06 14:11:52;;;;;;;2.95;1.40;;;38.80;26.50;;;;;;5030918;28;20084;-11
2022/06/06 14:14:21;;;;;;;1.58;1.13;;;38.70;26.80;;;;;;5030518;28;20049;-12
2022/06/06 14:16:52;;;;;;;3.75;1.13;;;38.70;26.40;;;;;;5030918;28;20581;-11
2022/06/06 14:19:22;;;;;;;1.83;1.30;;;38.80;26.20;;;;;;5031063;28;20029;-12